createdAt,value
2023-05-20T00:00:02.003Z,9.89
2023-05-20T00:02:29.827Z,9.84
2023-05-20T00:04:58.123Z,9.80
2023-05-20T00:07:29.001Z,9.89
2023-05-20T00:09:56.835Z,9.80
2023-05-20T00:12:24.418Z,9.79
2023-05-20T00:14:53.686Z,9.85
2023-05-20T00:17:21.881Z,9.77
2023-05-20T00:19:49.045Z,9.75
2023-05-20T00:22:25.532Z,9.79
2023-05-20T00:24:53.113Z,9.69
2023-05-20T00:27:20.966Z,9.70
2023-05-20T00:29:49.285Z,9.61
2023-05-20T00:32:17.368Z,9.61
2023-05-20T00:34:45.164Z,9.66
2023-05-20T00:37:13.140Z,9.66
2023-05-20T00:39:40.379Z,9.63
2023-05-20T00:42:16.997Z,9.61
2023-05-20T00:44:44.568Z,9.53
2023-05-20T00:47:12.786Z,9.49
2023-05-20T00:49:50.356Z,9.58
2023-05-20T00:52:19.281Z,9.66
2023-05-20T00:54:50.167Z,9.56
2023-05-20T00:57:31.138Z,9.57
2023-05-20T00:59:59.521Z,9.68
2023-05-20T01:02:27.871Z,9.66
2023-05-20T01:04:57.656Z,9.56
2023-05-20T01:07:28.632Z,9.52
2023-05-20T01:10:00.593Z,9.58
2023-05-20T01:12:35.566Z,9.63
2023-05-20T01:15:15.773Z,9.56
2023-05-20T01:17:53.439Z,9.56
2023-05-20T01:20:22.325Z,9.52
2023-05-20T01:22:59.424Z,9.50
2023-05-20T01:25:27.157Z,9.42
2023-05-20T01:27:56.952Z,9.45
2023-05-20T01:30:31.533Z,9.40
2023-05-20T01:33:05.683Z,9.41
2023-05-20T01:35:35.268Z,9.38
2023-05-20T01:38:07.820Z,9.33
2023-05-20T01:40:36.052Z,9.27
2023-05-20T01:43:04.865Z,9.32
2023-05-20T01:45:33.202Z,9.30
2023-05-20T01:48:02.400Z,9.31
2023-05-20T01:50:29.632Z,9.23
2023-05-20T01:52:57.164Z,9.17
2023-05-20T01:55:25.767Z,9.17
2023-05-20T01:57:53.888Z,9.20
2023-05-20T02:00:21.808Z,9.21
2023-05-20T02:02:48.905Z,9.16
2023-05-20T02:05:17.304Z,9.05
2023-05-20T02:07:45.589Z,9.17
2023-05-20T02:10:12.893Z,9.15
2023-05-20T02:12:40.906Z,9.07
2023-05-20T02:15:15.943Z,9.10
2023-05-20T02:17:44.212Z,9.13
2023-05-20T02:20:12.542Z,9.10
2023-05-20T02:22:40.111Z,9.15
2023-05-20T02:25:09.243Z,9.21
2023-05-20T02:27:40.069Z,9.13
2023-05-20T02:30:08.518Z,9.15
2023-05-20T02:32:36.104Z,9.16
2023-05-20T02:35:03.035Z,9.09
2023-05-20T02:37:30.591Z,9.01
2023-05-20T02:39:58.159Z,8.94
2023-05-20T02:42:25.129Z,8.88
2023-05-20T02:44:56.963Z,8.85
2023-05-20T02:47:26.691Z,8.78
2023-05-20T02:49:54.069Z,8.76
2023-05-20T02:52:22.125Z,8.71
2023-05-20T02:54:49.196Z,8.73
2023-05-20T02:57:16.610Z,8.72
2023-05-20T02:59:43.517Z,8.70
2023-05-20T03:02:10.376Z,8.72
2023-05-20T03:04:39.202Z,8.68
2023-05-20T03:07:07.915Z,8.67
2023-05-20T03:09:35.671Z,8.65
2023-05-20T03:12:02.587Z,8.72
2023-05-20T03:14:29.585Z,8.71
2023-05-20T03:16:56.373Z,8.70
2023-05-20T03:19:24.361Z,8.66
2023-05-20T03:21:54.193Z,8.62
2023-05-20T03:24:23.682Z,8.63
2023-05-20T03:26:53.794Z,8.64
2023-05-20T03:29:21.496Z,8.73
2023-05-20T03:31:48.690Z,8.73
2023-05-20T03:34:16.162Z,8.82
2023-05-20T03:36:43.042Z,8.84
2023-05-20T03:39:10.360Z,8.89
2023-05-20T03:41:38.545Z,8.86
2023-05-20T03:44:05.856Z,8.96
2023-05-20T03:46:34.852Z,8.97
2023-05-20T03:49:03.387Z,9.05
2023-05-20T03:51:33.369Z,9.00
2023-05-20T03:54:01.635Z,9.09
2023-05-20T03:56:29.000Z,9.13
2023-05-20T03:58:56.085Z,9.27
2023-05-20T04:01:26.015Z,9.31
2023-05-20T04:03:52.891Z,9.41
2023-05-20T04:06:19.921Z,9.60
2023-05-20T04:08:51.274Z,9.81
2023-05-20T04:11:18.596Z,10.02
2023-05-20T04:13:46.534Z,10.32
2023-05-20T04:16:13.498Z,10.67
2023-05-20T04:18:41.211Z,10.90
2023-05-20T04:21:08.686Z,11.18
2023-05-20T04:23:36.476Z,11.47
2023-05-20T04:26:03.766Z,11.72
2023-05-20T04:28:31.503Z,11.91
2023-05-20T04:31:00.358Z,12.17
2023-05-20T04:33:40.008Z,12.43
2023-05-20T04:36:16.574Z,12.53
2023-05-20T04:38:45.434Z,12.65
2023-05-20T04:41:12.358Z,12.89
2023-05-20T04:43:40.850Z,13.15
2023-05-20T04:46:08.030Z,13.41
2023-05-20T04:48:38.098Z,13.59
2023-05-20T04:51:05.005Z,13.83
2023-05-20T04:53:34.304Z,14.02
2023-05-20T04:56:01.423Z,14.18
2023-05-20T04:58:29.759Z,14.27
2023-05-20T05:00:56.840Z,14.47
2023-05-20T05:03:24.020Z,14.52
2023-05-20T05:05:51.198Z,14.73
2023-05-20T05:08:21.208Z,14.87
2023-05-20T05:10:48.170Z,15.04
2023-05-20T05:13:15.680Z,15.24
2023-05-20T05:15:42.524Z,15.45
2023-05-20T05:18:09.873Z,15.62
2023-05-20T05:20:37.013Z,15.77
2023-05-20T05:23:03.956Z,15.86
2023-05-20T05:25:31.262Z,16.05
2023-05-20T05:28:01.579Z,16.15
2023-05-20T05:30:28.746Z,16.30
2023-05-20T05:32:55.652Z,16.28
2023-05-20T05:35:22.599Z,16.17
2023-05-20T05:37:50.478Z,15.95
2023-05-20T05:40:17.709Z,15.90
2023-05-20T05:42:44.867Z,16.16
2023-05-20T05:45:14.776Z,16.48
2023-05-20T05:47:41.588Z,16.81
2023-05-20T05:50:13.430Z,17.20
2023-05-20T05:52:40.360Z,17.58
2023-05-20T05:55:11.090Z,17.92
2023-05-20T05:57:37.930Z,18.27
2023-05-20T06:00:05.970Z,18.49
2023-05-20T06:02:36.986Z,18.42
2023-05-20T06:05:04.708Z,18.27
2023-05-20T06:07:34.736Z,18.40
2023-05-20T06:10:02.436Z,18.61
2023-05-20T06:12:29.085Z,18.71
2023-05-20T06:14:56.359Z,18.95
2023-05-20T06:17:24.432Z,19.25
2023-05-20T06:19:55.117Z,19.47
2023-05-20T06:22:22.676Z,19.79
2023-05-20T06:24:49.471Z,19.96
2023-05-20T06:27:16.670Z,20.07
2023-05-20T06:29:44.048Z,19.83
2023-05-20T06:32:11.257Z,20.15
2023-05-20T06:35:12.555Z,20.45
2023-05-20T06:37:41.798Z,20.35
2023-05-20T06:40:09.924Z,20.20
2023-05-20T06:42:39.775Z,20.27
2023-05-20T06:45:10.963Z,20.48
2023-05-20T06:47:38.193Z,20.37
2023-05-20T06:50:05.607Z,20.21
2023-05-20T06:52:32.793Z,20.11
2023-05-20T06:54:59.560Z,19.96
2023-05-20T06:57:26.735Z,19.96
2023-05-20T06:59:53.461Z,20.13
2023-05-20T07:02:21.617Z,20.44
2023-05-20T07:04:49.380Z,20.84
2023-05-20T07:07:17.439Z,20.80
2023-05-20T07:09:44.468Z,21.10
2023-05-20T07:12:14.484Z,21.48
2023-05-20T07:14:44.801Z,21.89
2023-05-20T07:17:14.471Z,22.14
2023-05-20T07:19:41.720Z,22.17
2023-05-20T07:22:25.886Z,21.75
2023-05-20T07:24:53.623Z,21.48
2023-05-20T07:27:24.218Z,21.26
2023-05-20T07:29:51.535Z,21.10
2023-05-20T07:32:19.192Z,20.98
2023-05-20T07:34:46.165Z,21.04
2023-05-20T07:37:14.624Z,20.93
2023-05-20T07:39:41.724Z,20.73
2023-05-20T07:42:08.637Z,20.46
2023-05-20T07:44:38.742Z,20.25
2023-05-20T07:47:06.474Z,20.02
2023-05-20T07:49:33.806Z,19.90
2023-05-20T07:52:02.848Z,19.64
2023-05-20T07:54:35.367Z,19.39
2023-05-20T07:57:02.271Z,19.25
2023-05-20T07:59:32.297Z,19.33
2023-05-20T08:01:59.255Z,19.52
2023-05-20T08:04:27.919Z,19.87
2023-05-20T08:06:58.129Z,20.04
2023-05-20T08:09:25.053Z,20.05
2023-05-20T08:11:52.099Z,20.07
2023-05-20T08:14:19.640Z,20.28
2023-05-20T08:16:46.785Z,20.39
2023-05-20T08:19:13.998Z,20.25
2023-05-20T08:21:41.104Z,20.12
2023-05-20T08:24:08.351Z,20.08
2023-05-20T08:26:35.604Z,20.14
2023-05-20T08:29:02.453Z,20.29
2023-05-20T08:31:29.546Z,20.34
2023-05-20T08:33:58.743Z,20.36
2023-05-20T08:36:31.937Z,20.26
2023-05-20T08:38:58.678Z,20.21
2023-05-20T08:41:26.005Z,20.13
2023-05-20T08:43:54.235Z,19.97
2023-05-20T08:46:23.188Z,19.85
2023-05-20T08:48:50.660Z,19.90
2023-05-20T08:51:23.645Z,19.95
2023-05-20T08:53:51.367Z,19.93
2023-05-20T08:56:18.447Z,19.89
2023-05-20T08:58:48.355Z,19.77
2023-05-20T09:01:15.264Z,19.72
2023-05-20T09:03:42.302Z,19.65
2023-05-20T09:06:12.701Z,19.64
2023-05-20T09:08:39.782Z,19.85
2023-05-20T09:11:09.809Z,20.02
2023-05-20T09:13:36.675Z,20.24
2023-05-20T09:16:03.918Z,20.41
2023-05-20T09:18:31.615Z,20.50
2023-05-20T09:20:58.678Z,20.40
2023-05-20T09:23:26.078Z,20.36
2023-05-20T09:25:54.854Z,20.39
2023-05-20T09:28:27.945Z,20.36
2023-05-20T09:31:01.659Z,20.27
2023-05-20T09:33:30.360Z,20.19
2023-05-20T09:36:16.400Z,20.20
2023-05-20T09:38:45.653Z,20.07
2023-05-20T09:41:14.192Z,20.15
2023-05-20T09:43:45.846Z,20.22
2023-05-20T09:46:13.732Z,20.18
2023-05-20T09:48:41.184Z,20.11
2023-05-20T09:51:11.136Z,20.10
2023-05-20T09:53:38.083Z,20.16
2023-05-20T09:56:05.659Z,20.15
2023-05-20T09:58:36.300Z,20.09
2023-05-20T10:01:06.910Z,20.13
2023-05-20T10:03:34.462Z,20.15
2023-05-20T10:06:07.638Z,20.26
2023-05-20T10:09:01.165Z,20.21
2023-05-20T10:11:34.037Z,20.17
2023-05-20T10:14:19.078Z,20.27
2023-05-20T10:16:56.867Z,20.32
2023-05-20T10:19:35.966Z,20.31
2023-05-20T10:22:05.431Z,20.27
2023-05-20T10:24:41.536Z,20.29
2023-05-20T10:27:15.128Z,20.18
2023-05-20T10:30:00.968Z,20.10
2023-05-20T10:32:33.333Z,20.08
2023-05-20T10:35:05.591Z,20.07
2023-05-20T10:37:42.687Z,19.97
2023-05-20T10:40:15.189Z,19.92
2023-05-20T10:42:43.170Z,19.76
2023-05-20T10:45:10.961Z,19.65
2023-05-20T10:47:42.437Z,19.68
2023-05-20T10:50:28.038Z,19.70
2023-05-20T10:52:56.713Z,19.64
2023-05-20T10:55:23.930Z,19.78
2023-05-20T10:57:51.796Z,20.06
2023-05-20T11:00:22.118Z,20.28
2023-05-20T11:02:50.333Z,20.59
2023-05-20T11:05:18.211Z,20.70
2023-05-20T11:07:45.589Z,20.83
2023-05-20T11:10:12.530Z,21.08
2023-05-20T11:12:39.946Z,21.28
2023-05-20T11:15:12.462Z,21.41
2023-05-20T11:17:40.108Z,21.45
2023-05-20T11:20:08.032Z,21.59
2023-05-20T11:22:34.876Z,21.84
2023-05-20T11:25:08.201Z,22.09
2023-05-20T11:27:39.837Z,22.37
2023-05-20T11:30:08.062Z,22.58
2023-05-20T11:32:35.224Z,22.71
2023-05-20T11:35:10.094Z,22.98
2023-05-20T11:37:37.828Z,22.98
2023-05-20T11:40:10.173Z,23.28
2023-05-20T11:42:37.326Z,23.43
2023-05-20T11:45:04.463Z,23.59
2023-05-20T11:47:32.698Z,23.69
2023-05-20T11:49:59.912Z,23.87
2023-05-20T11:52:29.317Z,23.95
2023-05-20T11:54:57.108Z,23.69
2023-05-20T11:57:24.152Z,23.57
2023-05-20T11:59:51.263Z,23.26
2023-05-20T12:02:18.229Z,22.77
2023-05-20T12:04:45.199Z,22.49
2023-05-20T12:07:12.023Z,22.46
2023-05-20T12:09:38.803Z,22.39
2023-05-20T12:12:05.962Z,22.26
2023-05-20T12:14:33.021Z,22.17
2023-05-20T12:17:04.672Z,22.04
2023-05-20T12:19:33.693Z,22.03
2023-05-20T12:22:02.984Z,22.15
2023-05-20T12:24:30.037Z,22.42
2023-05-20T12:26:57.010Z,22.77
2023-05-20T12:29:25.205Z,23.04
2023-05-20T12:31:52.792Z,23.08
2023-05-20T12:34:19.570Z,23.07
2023-05-20T12:36:47.430Z,23.00
2023-05-20T12:39:18.094Z,22.90
2023-05-20T12:41:44.899Z,22.79
2023-05-20T12:44:11.669Z,22.66
2023-05-20T12:46:38.538Z,22.64
2023-05-20T12:49:05.481Z,22.48
2023-05-20T12:51:32.217Z,22.41
2023-05-20T12:53:59.408Z,22.64
2023-05-20T12:56:27.710Z,22.87
2023-05-20T12:58:54.702Z,23.10
2023-05-20T13:01:21.534Z,23.34
2023-05-20T13:03:52.959Z,23.36
2023-05-20T13:06:20.169Z,23.26
2023-05-20T13:08:46.960Z,23.10
2023-05-20T13:11:14.297Z,22.93
2023-05-20T13:13:41.735Z,22.90
2023-05-20T13:16:10.434Z,22.87
2023-05-20T13:18:37.366Z,22.87
2023-05-20T13:21:04.290Z,22.73
2023-05-20T13:23:31.137Z,22.92
2023-05-20T13:25:58.264Z,23.03
2023-05-20T13:28:25.074Z,23.05
2023-05-20T13:30:52.230Z,23.06
2023-05-20T13:33:19.199Z,23.02
2023-05-20T13:35:46.432Z,23.07
2023-05-20T13:38:13.440Z,22.83
2023-05-20T13:40:40.497Z,22.97
2023-05-20T13:43:07.373Z,23.29
2023-05-20T13:45:36.348Z,23.44
2023-05-20T13:48:03.551Z,23.51
2023-05-20T13:50:32.914Z,23.55
2023-05-20T13:53:00.054Z,23.51
2023-05-20T13:55:44.244Z,23.58
2023-05-20T13:58:15.148Z,23.64
2023-05-20T14:00:42.602Z,23.72
2023-05-20T14:03:13.723Z,23.79
2023-05-20T14:05:41.070Z,23.97
2023-05-20T14:08:08.506Z,23.94
2023-05-20T14:10:35.543Z,23.94
2023-05-20T14:13:03.114Z,23.72
2023-05-20T14:15:33.029Z,23.48
2023-05-20T14:18:00.071Z,23.15
2023-05-20T14:20:27.017Z,22.95
2023-05-20T14:22:53.920Z,22.79
2023-05-20T14:25:20.864Z,22.90
2023-05-20T14:27:48.415Z,23.04
2023-05-20T14:30:15.250Z,22.95
2023-05-20T14:32:47.315Z,22.69
2023-05-20T14:35:14.377Z,22.03
2023-05-20T14:37:41.901Z,20.76
2023-05-20T14:40:09.227Z,19.82
2023-05-20T14:42:46.158Z,19.13
2023-05-20T14:45:13.857Z,18.28
2023-05-20T14:47:41.198Z,17.73
2023-05-20T14:50:08.685Z,17.30
2023-05-20T14:52:35.918Z,17.05
2023-05-20T14:55:03.139Z,16.77
2023-05-20T14:57:30.075Z,16.56
2023-05-20T15:00:00.181Z,16.48
2023-05-20T15:02:27.603Z,16.31
2023-05-20T15:04:55.113Z,16.23
2023-05-20T15:07:23.011Z,16.14
2023-05-20T15:09:50.232Z,16.15
2023-05-20T15:12:17.778Z,16.16
2023-05-20T15:14:45.266Z,16.19
2023-05-20T15:17:18.673Z,16.13
2023-05-20T15:19:55.601Z,16.02
2023-05-20T15:22:23.083Z,16.03
2023-05-20T15:24:50.574Z,16.00
2023-05-20T15:27:18.178Z,15.99
2023-05-20T15:29:53.013Z,16.01
2023-05-20T15:32:22.178Z,16.07
2023-05-20T15:34:50.774Z,15.98
2023-05-20T15:37:24.733Z,15.91
2023-05-20T15:39:52.466Z,15.81
2023-05-20T15:42:35.017Z,15.80
2023-05-20T15:45:02.597Z,15.69
2023-05-20T15:47:39.162Z,15.62
2023-05-20T15:50:12.922Z,15.61
2023-05-20T15:52:41.168Z,15.58
2023-05-20T15:55:09.890Z,15.54
2023-05-20T15:57:38.362Z,15.50
2023-05-20T16:00:13.369Z,15.47
2023-05-20T16:02:47.470Z,15.45
2023-05-20T16:05:17.117Z,15.49
2023-05-20T16:07:48.492Z,15.48
2023-05-20T16:10:20.088Z,15.41
2023-05-20T16:12:57.452Z,15.40
2023-05-20T16:15:28.346Z,15.40
2023-05-20T16:17:56.766Z,15.45
2023-05-20T16:20:24.776Z,15.46
2023-05-20T16:23:02.534Z,15.43
2023-05-20T16:25:35.879Z,15.34
2023-05-20T16:28:17.542Z,15.44
2023-05-20T16:30:51.642Z,15.39
2023-05-20T16:33:22.504Z,15.26
2023-05-20T16:35:50.209Z,15.30
2023-05-20T16:38:25.688Z,15.30
2023-05-20T16:40:54.026Z,15.29
2023-05-20T16:43:59.234Z,15.31
2023-05-20T16:46:35.061Z,15.17
2023-05-20T16:49:02.802Z,15.07
2023-05-20T16:51:34.743Z,15.03
2023-05-20T16:54:03.621Z,14.96
2023-05-20T16:56:31.609Z,14.91
2023-05-20T16:59:00.159Z,14.87
2023-05-20T17:01:42.237Z,14.87
2023-05-20T17:04:16.209Z,14.79
2023-05-20T17:06:46.574Z,14.71
2023-05-20T17:09:14.066Z,14.60
2023-05-20T17:11:47.944Z,14.53
2023-05-20T17:14:15.397Z,14.54
2023-05-20T17:16:47.080Z,14.38
2023-05-20T17:19:25.276Z,14.38
2023-05-20T17:21:55.579Z,14.31
2023-05-20T17:24:25.740Z,14.23
2023-05-20T17:26:53.278Z,14.14
2023-05-20T17:29:20.892Z,14.01
2023-05-20T17:31:47.846Z,13.97
2023-05-20T17:34:17.781Z,13.86
2023-05-20T17:36:48.500Z,13.73
2023-05-20T17:39:17.110Z,13.70
2023-05-20T17:41:44.580Z,13.59
2023-05-20T17:44:11.759Z,13.51
2023-05-20T17:46:39.278Z,13.48
2023-05-20T17:49:06.782Z,13.45
2023-05-20T17:51:34.803Z,13.39
2023-05-20T17:54:02.137Z,13.37
2023-05-20T17:56:29.845Z,13.34
2023-05-20T17:58:58.006Z,13.29
2023-05-20T18:01:42.854Z,13.17
2023-05-20T18:04:19.241Z,13.09
2023-05-20T18:06:46.692Z,13.16
2023-05-20T18:09:14.218Z,13.03
2023-05-20T18:11:48.089Z,12.93
2023-05-20T18:14:17.336Z,12.95
2023-05-20T18:16:49.236Z,12.88
2023-05-20T18:19:19.838Z,12.88
2023-05-20T18:21:47.965Z,12.77
2023-05-20T18:24:17.175Z,12.82
2023-05-20T18:26:45.508Z,12.73
2023-05-20T18:29:23.581Z,12.72
2023-05-20T18:31:54.188Z,12.69
2023-05-20T18:34:24.263Z,12.65
2023-05-20T18:36:52.063Z,12.64
2023-05-20T18:39:21.984Z,12.66
2023-05-20T18:41:55.607Z,12.56
2023-05-20T18:44:23.364Z,12.51
2023-05-20T18:46:54.589Z,12.46
2023-05-20T18:49:22.369Z,12.49
2023-05-20T18:51:50.671Z,12.51
2023-05-20T18:54:21.386Z,12.42
2023-05-20T18:56:49.877Z,12.41
2023-05-20T18:59:18.335Z,12.41
2023-05-20T19:01:45.915Z,12.44
2023-05-20T19:04:14.346Z,12.37
2023-05-20T19:06:54.567Z,12.31
2023-05-20T19:09:34.229Z,12.33
2023-05-20T19:12:14.546Z,12.43
2023-05-20T19:14:46.189Z,12.37
2023-05-20T19:17:18.479Z,12.35
2023-05-20T19:19:49.473Z,12.31
2023-05-20T19:22:18.003Z,12.30
2023-05-20T19:25:04.921Z,12.30
2023-05-20T19:27:38.508Z,12.31
2023-05-20T19:30:11.025Z,12.31
2023-05-20T19:32:48.428Z,12.30
2023-05-20T19:35:22.073Z,12.35
2023-05-20T19:37:52.325Z,12.38
2023-05-20T19:40:28.065Z,12.45
2023-05-20T19:43:05.114Z,12.44
2023-05-20T19:45:39.522Z,12.45
2023-05-20T19:48:08.051Z,12.48
2023-05-20T19:50:39.455Z,12.43
2023-05-20T19:53:08.049Z,12.43
2023-05-20T19:55:36.825Z,12.35
2023-05-20T19:58:08.079Z,12.35
2023-05-20T20:00:43.999Z,12.31
2023-05-20T20:03:12.708Z,12.28
2023-05-20T20:05:46.547Z,12.27
2023-05-20T20:08:24.853Z,12.28
2023-05-20T20:10:56.282Z,12.24
2023-05-20T20:13:24.564Z,12.25
2023-05-20T20:18:40.660Z,12.14
2023-05-20T20:21:11.291Z,12.11
2023-05-20T20:23:43.436Z,12.02
2023-05-20T20:26:14.140Z,12.03
2023-05-20T20:28:52.070Z,12.07
2023-05-20T20:31:18.844Z,12.01
2023-05-20T20:33:49.218Z,12.02
2023-05-20T20:36:17.498Z,11.98
2023-05-20T20:38:47.366Z,11.94
2023-05-20T20:41:17.717Z,11.89
2023-05-20T20:43:45.739Z,11.86
2023-05-20T20:46:16.159Z,11.88
2023-05-20T20:48:48.081Z,11.88
2023-05-20T20:51:27.912Z,11.91
2023-05-20T20:53:55.872Z,11.87
2023-05-20T20:56:26.507Z,11.84
2023-05-20T20:58:54.510Z,11.80
2023-05-20T21:01:21.353Z,11.82
2023-05-20T21:03:48.649Z,11.85
2023-05-20T21:06:16.126Z,11.98
2023-05-20T21:08:44.050Z,12.04
2023-05-20T21:11:12.350Z,12.04
2023-05-20T21:13:39.948Z,12.04
2023-05-20T21:16:10.830Z,12.08
2023-05-20T21:18:41.645Z,12.09
2023-05-20T21:21:13.153Z,12.12
2023-05-20T21:23:40.931Z,12.07
2023-05-20T21:26:14.034Z,12.04
2023-05-20T21:28:41.386Z,12.13
2023-05-20T21:31:09.073Z,12.14
2023-05-20T21:33:36.101Z,12.09
2023-05-20T21:36:04.397Z,11.98
2023-05-20T21:38:34.767Z,12.01
2023-05-20T21:41:08.466Z,11.97
2023-05-20T21:43:48.682Z,11.94
2023-05-20T21:46:34.514Z,12.04
2023-05-20T21:49:01.624Z,11.99
2023-05-20T21:51:29.581Z,11.92
2023-05-20T21:53:56.940Z,11.97
2023-05-20T21:56:24.561Z,11.87
2023-05-20T21:58:54.687Z,11.94
2023-05-20T22:01:21.808Z,11.92
2023-05-20T22:03:51.481Z,11.85
2023-05-20T22:06:22.612Z,11.81
2023-05-20T22:08:50.138Z,11.85
2023-05-20T22:11:17.572Z,11.80
2023-05-20T22:13:46.075Z,11.82
2023-05-20T22:16:14.720Z,11.78
2023-05-20T22:18:43.618Z,11.70
2023-05-20T22:21:12.273Z,11.71
2023-05-20T22:23:41.168Z,11.77
2023-05-20T22:26:12.025Z,11.71
2023-05-20T22:28:39.879Z,11.74
2023-05-20T22:31:07.462Z,11.72
2023-05-20T22:33:36.752Z,11.71
2023-05-20T22:36:05.194Z,11.64
2023-05-20T22:38:33.322Z,11.65
2023-05-20T22:41:01.321Z,11.78
2023-05-20T22:43:29.651Z,11.79
2023-05-20T22:45:57.087Z,11.78
2023-05-20T22:48:25.016Z,11.68
2023-05-20T22:50:56.074Z,11.66
2023-05-20T22:53:23.979Z,11.68
2023-05-20T22:55:51.937Z,11.76
2023-05-20T22:58:19.610Z,11.74
2023-05-20T23:00:46.556Z,11.73
2023-05-20T23:03:13.994Z,11.75
2023-05-20T23:05:40.749Z,11.72
2023-05-20T23:08:07.746Z,11.76
2023-05-20T23:10:37.953Z,11.82
2023-05-20T23:13:05.281Z,11.74
2023-05-20T23:15:32.836Z,11.76
2023-05-20T23:17:59.847Z,11.71
2023-05-20T23:20:29.852Z,11.67
2023-05-20T23:22:58.003Z,11.70
2023-05-20T23:25:25.565Z,11.70
2023-05-20T23:27:53.783Z,11.69
2023-05-20T23:30:23.234Z,11.72
2023-05-20T23:33:25.190Z,11.75
2023-05-20T23:35:56.810Z,11.71
2023-05-20T23:38:27.583Z,11.80
2023-05-20T23:40:55.720Z,11.78
2023-05-20T23:43:22.758Z,11.82
2023-05-20T23:46:00.349Z,11.82
2023-05-20T23:48:28.062Z,11.79
2023-05-20T23:50:57.832Z,11.77
2023-05-20T23:53:26.233Z,11.75
2023-05-20T23:55:54.442Z,11.77
2023-05-20T23:58:22.557Z,11.82
